createdAt,value
2023-04-15T00:00:03.975Z,100997.84
2023-04-15T00:03:03.703Z,101012.28
2023-04-15T00:05:52.969Z,101010.00
2023-04-15T00:08:43.679Z,101015.81
2023-04-15T00:11:33.062Z,101026.13
2023-04-15T00:14:22.345Z,101027.53
2023-04-15T00:17:11.706Z,101030.25
2023-04-15T00:20:02.588Z,101036.81
2023-04-15T00:22:51.782Z,101030.84
2023-04-15T00:25:41.863Z,101039.06
2023-04-15T00:28:31.127Z,101051.59
2023-04-15T00:31:20.937Z,101051.69
2023-04-15T00:34:10.831Z,101046.31
2023-04-15T00:37:01.803Z,101057.41
2023-04-15T00:39:51.325Z,101061.22
2023-04-15T00:42:41.202Z,101049.28
2023-04-15T00:45:30.685Z,101066.38
2023-04-15T00:48:20.182Z,101072.44
2023-04-15T00:51:09.764Z,101067.03
2023-04-15T00:54:01.041Z,101056.50
2023-04-15T00:56:50.748Z,101051.06
2023-04-15T00:59:40.222Z,101051.06
2023-04-15T01:02:29.729Z,101050.00
2023-04-15T01:05:19.716Z,101034.13
2023-04-15T01:08:09.844Z,101060.53
2023-04-15T01:11:03.870Z,101061.28
2023-04-15T01:13:54.393Z,101065.91
2023-04-15T01:16:45.370Z,101069.50
2023-04-15T01:19:34.670Z,101084.81
2023-04-15T01:22:26.768Z,101067.41
2023-04-15T01:25:21.816Z,101080.41
2023-04-15T01:28:12.506Z,101094.53
2023-04-15T01:31:12.645Z,101085.31
2023-04-15T01:34:02.954Z,101096.22
2023-04-15T01:37:10.903Z,101095.72
2023-04-15T01:40:00.180Z,101096.84
2023-04-15T01:42:49.588Z,101100.41
2023-04-15T01:45:40.232Z,101102.59
2023-04-15T01:48:29.494Z,101102.63
2023-04-15T01:51:19.157Z,101108.16
2023-04-15T01:54:08.455Z,101112.22
2023-04-15T01:56:57.966Z,101110.09
2023-04-15T01:59:47.397Z,101114.72
2023-04-15T02:02:39.136Z,101125.63
2023-04-15T02:05:28.497Z,101134.09
2023-04-15T02:08:17.854Z,101144.75
2023-04-15T02:11:07.203Z,101144.75
2023-04-15T02:13:57.030Z,101133.06
2023-04-15T02:16:48.186Z,101130.94
2023-04-15T02:19:40.631Z,101144.00
2023-04-15T02:22:30.403Z,101139.06
2023-04-15T02:25:20.369Z,101138.53
2023-04-15T02:28:09.657Z,101144.78
2023-04-15T02:30:59.929Z,101136.59
2023-04-15T02:33:49.125Z,101143.97
2023-04-15T02:36:40.810Z,101144.78
2023-04-15T02:39:29.996Z,101141.53
2023-04-15T02:42:19.276Z,101158.16
2023-04-15T02:45:12.214Z,101150.81
2023-04-15T02:48:06.307Z,101163.06
2023-04-15T02:50:55.878Z,101155.72
2023-04-15T02:53:46.590Z,101162.56
2023-04-15T02:56:35.972Z,101164.47
2023-04-15T02:59:25.185Z,101160.97
2023-04-15T03:02:14.499Z,101173.75
2023-04-15T03:05:04.247Z,101171.84
2023-04-15T03:07:53.576Z,101182.72
2023-04-15T03:10:44.772Z,101170.75
2023-04-15T03:13:34.030Z,101191.13
2023-04-15T03:16:31.042Z,101185.16
2023-04-15T03:19:21.097Z,101187.09
2023-04-15T03:22:10.461Z,101204.78
2023-04-15T03:24:59.886Z,101208.34
2023-04-15T03:27:51.199Z,101212.16
2023-04-15T03:30:40.421Z,101213.53
2023-04-15T03:33:29.617Z,101227.41
2023-04-15T03:36:18.943Z,101223.38
2023-04-15T03:39:08.343Z,101231.53
2023-04-15T03:41:57.936Z,101232.88
2023-04-15T03:44:48.570Z,101232.63
2023-04-15T03:47:37.940Z,101238.06
2023-04-15T03:50:27.870Z,101237.22
2023-04-15T03:53:17.253Z,101230.47
2023-04-15T03:56:07.220Z,101260.38
2023-04-15T03:58:56.410Z,101254.13
2023-04-15T04:01:47.302Z,101244.59
2023-04-15T04:04:36.641Z,101254.91
2023-04-15T04:07:26.222Z,101249.75
2023-04-15T04:10:15.403Z,101248.94
2023-04-15T04:13:04.840Z,101260.41
2023-04-15T04:15:54.006Z,101267.72
2023-04-15T04:18:44.663Z,101262.56
2023-04-15T04:21:34.320Z,101270.47
2023-04-15T04:24:23.798Z,101266.94
2023-04-15T04:27:12.969Z,101279.16
2023-04-15T04:30:02.267Z,101288.41
2023-04-15T04:32:51.947Z,101273.19
2023-04-15T04:35:42.708Z,101282.69
2023-04-15T04:38:31.913Z,101285.41
2023-04-15T04:41:21.500Z,101294.69
2023-04-15T04:44:10.722Z,101289.78
2023-04-15T04:46:59.922Z,101299.59
2023-04-15T04:49:49.064Z,101292.53
2023-04-15T04:52:40.761Z,101293.34
2023-04-15T04:55:30.286Z,101299.59
2023-04-15T04:58:19.537Z,101299.31
2023-04-15T05:01:09.210Z,101303.66
2023-04-15T05:03:58.530Z,101295.50
2023-04-15T05:06:47.820Z,101302.84
2023-04-15T05:09:38.644Z,101312.38
2023-04-15T05:12:27.937Z,101315.91
2023-04-15T05:15:17.127Z,101321.34
2023-04-15T05:18:06.673Z,101317.81
2023-04-15T05:20:55.945Z,101324.31
2023-04-15T05:23:45.595Z,101331.41
2023-04-15T05:26:36.218Z,101331.97
2023-04-15T05:29:25.505Z,101343.38
2023-04-15T05:32:14.698Z,101350.41
2023-04-15T05:35:03.853Z,101353.41
2023-04-15T05:37:53.033Z,101345.78
2023-04-15T05:40:42.207Z,101352.59
2023-04-15T05:43:32.950Z,101363.75
2023-04-15T05:46:22.734Z,101365.66
2023-04-15T05:49:12.142Z,101373.78
2023-04-15T05:52:01.451Z,101349.31
2023-04-15T05:54:50.749Z,101369.44
2023-04-15T05:57:40.171Z,101375.97
2023-04-15T06:00:31.332Z,101383.84
2023-04-15T06:03:20.629Z,101389.03
2023-04-15T06:06:10.026Z,101381.41
2023-04-15T06:08:59.291Z,101408.06
2023-04-15T06:11:48.608Z,101412.13
2023-04-15T06:14:37.774Z,101418.41
2023-04-15T06:17:28.517Z,101420.56
2023-04-15T06:20:17.964Z,101417.31
2023-04-15T06:23:07.341Z,101425.47
2023-04-15T06:25:56.498Z,101422.75
2023-04-15T06:28:45.949Z,101434.19
2023-04-15T06:31:35.246Z,101433.94
2023-04-15T06:34:25.931Z,101434.75
2023-04-15T06:37:16.457Z,101440.47
2023-04-15T06:40:07.214Z,101439.66
2023-04-15T06:42:57.044Z,101454.63
2023-04-15T06:45:46.563Z,101454.91
2023-04-15T06:48:35.901Z,101456.56
2023-04-15T06:51:27.185Z,101469.06
2023-04-15T06:54:16.461Z,101471.25
2023-04-15T06:57:05.752Z,101466.34
2023-04-15T06:59:55.036Z,101474.22
2023-04-15T07:02:44.374Z,101485.38
2023-04-15T07:05:33.626Z,101479.69
2023-04-15T07:08:25.700Z,101478.22
2023-04-15T07:11:15.201Z,101492.56
2023-04-15T07:14:04.913Z,101500.78
2023-04-15T07:16:54.211Z,101494.25
2023-04-15T07:19:45.606Z,101497.91
2023-04-15T07:22:35.299Z,101507.50
2023-04-15T07:25:26.550Z,101516.66
2023-04-15T07:28:15.755Z,101529.38
2023-04-15T07:31:05.400Z,101524.56
2023-04-15T07:33:54.701Z,101526.75
2023-04-15T07:36:44.302Z,101524.06
2023-04-15T07:39:33.611Z,101535.09
2023-04-15T07:42:24.480Z,101537.94
2023-04-15T07:45:14.015Z,101547.72
2023-04-15T07:48:03.482Z,101553.66
2023-04-15T07:50:52.935Z,101555.19
2023-04-15T07:53:42.453Z,101561.00
2023-04-15T07:56:32.803Z,101562.31
2023-04-15T07:59:23.462Z,101564.94
2023-04-15T08:02:13.972Z,101563.19
2023-04-15T08:05:05.951Z,101551.91
2023-04-15T08:07:55.355Z,101570.78
2023-04-15T08:10:44.894Z,101575.38
2023-04-15T08:13:34.475Z,101566.19
2023-04-15T08:16:28.091Z,101565.53
2023-04-15T08:19:17.394Z,101565.22
2023-04-15T08:22:06.711Z,101565.03
2023-04-15T08:25:05.783Z,101563.09
2023-04-15T08:27:58.123Z,101556.56
2023-04-15T08:30:47.498Z,101575.75
2023-04-15T08:33:38.283Z,101567.44
2023-04-15T08:36:28.568Z,101578.69
2023-04-15T08:39:17.836Z,101571.50
2023-04-15T08:42:13.347Z,101574.53
2023-04-15T08:45:05.294Z,101579.53
2023-04-15T08:47:58.704Z,101589.06
2023-04-15T08:50:50.195Z,101589.06
2023-04-15T08:53:39.940Z,101593.56
2023-04-15T08:56:32.723Z,101591.59
2023-04-15T08:59:22.656Z,101609.03
2023-04-15T09:02:13.280Z,101606.16
2023-04-15T09:05:05.177Z,101602.91
2023-04-15T09:07:55.881Z,101609.34
2023-04-15T09:10:45.220Z,101588.13
2023-04-15T09:13:34.535Z,101608.13
2023-04-15T09:16:24.128Z,101614.88
2023-04-15T09:19:24.360Z,101616.97
2023-04-15T09:22:13.896Z,101606.31
2023-04-15T09:25:05.105Z,101616.25
2023-04-15T09:27:56.409Z,101614.78
2023-04-15T09:30:49.151Z,101629.97
2023-04-15T09:33:57.670Z,101617.47
2023-04-15T09:36:58.038Z,101623.88
2023-04-15T09:39:50.249Z,101616.81
2023-04-15T09:42:56.966Z,101617.47
2023-04-15T09:45:51.137Z,101610.44
2023-04-15T09:48:40.478Z,101617.75
2023-04-15T09:51:36.732Z,101621.44
2023-04-15T09:54:26.081Z,101629.19
2023-04-15T09:57:15.879Z,101627.34
2023-04-15T10:00:08.933Z,101615.56
2023-04-15T10:02:58.754Z,101629.00
2023-04-15T10:05:51.200Z,101631.94
2023-04-15T10:08:41.833Z,101621.81
2023-04-15T10:11:31.993Z,101610.16
2023-04-15T10:14:22.111Z,101628.75
2023-04-15T10:17:13.764Z,101615.91
2023-04-15T10:20:03.963Z,101623.38
2023-04-15T10:22:54.396Z,101621.88
2023-04-15T10:25:44.329Z,101610.56
2023-04-15T10:28:33.721Z,101605.34
2023-04-15T10:31:24.215Z,101623.31
2023-04-15T10:34:16.158Z,101611.88
2023-04-15T10:37:06.823Z,101610.84
2023-04-15T10:39:56.030Z,101606.53
2023-04-15T10:42:45.356Z,101622.94
2023-04-15T10:45:37.870Z,101630.31
2023-04-15T10:48:27.223Z,101625.91
2023-04-15T10:51:18.591Z,101625.81
2023-04-15T10:54:15.206Z,101605.84
2023-04-15T10:57:24.435Z,101614.22
2023-04-15T11:00:15.976Z,101631.88
2023-04-15T11:03:09.680Z,101635.47
2023-04-15T11:05:59.147Z,101638.50
2023-04-15T11:09:09.704Z,101633.31
2023-04-15T11:12:09.821Z,101637.47
2023-04-15T11:15:01.754Z,101637.16
2023-04-15T11:17:51.083Z,101634.84
2023-04-15T11:20:45.087Z,101633.66
2023-04-15T11:23:44.331Z,101631.56
2023-04-15T11:26:35.404Z,101617.31
2023-04-15T11:29:29.889Z,101624.66
2023-04-15T11:32:19.176Z,101632.41
2023-04-15T11:35:09.359Z,101636.59
2023-04-15T11:37:59.083Z,101635.50
2023-04-15T11:40:48.669Z,101640.41
2023-04-15T11:43:39.476Z,101622.31
2023-04-15T11:46:32.172Z,101621.38
2023-04-15T11:49:33.996Z,101634.53
2023-04-15T11:52:26.012Z,101639.75
2023-04-15T11:55:15.591Z,101632.69
2023-04-15T11:58:10.595Z,101641.25
2023-04-15T12:01:03.049Z,101639.91
2023-04-15T12:03:52.469Z,101644.59
2023-04-15T12:06:42.229Z,101638.03
2023-04-15T12:09:32.428Z,101632.94
2023-04-15T12:12:22.072Z,101634.56
2023-04-15T12:15:12.032Z,101628.31
2023-04-15T12:18:02.763Z,101613.56
2023-04-15T12:20:55.246Z,101629.00
2023-04-15T12:23:50.882Z,101618.53
2023-04-15T12:26:45.857Z,101614.88
2023-04-15T12:29:37.296Z,101628.50
2023-04-15T12:32:26.616Z,101624.78
2023-04-15T12:35:19.410Z,101635.97
2023-04-15T12:38:10.928Z,101626.53
2023-04-15T12:41:00.402Z,101627.72
2023-04-15T12:43:49.708Z,101623.91
2023-04-15T12:46:39.893Z,101630.22
2023-04-15T12:49:29.397Z,101631.94
2023-04-15T12:52:20.099Z,101631.97
2023-04-15T12:55:10.302Z,101623.69
2023-04-15T12:57:59.646Z,101635.72
2023-04-15T13:00:49.070Z,101629.03
2023-04-15T13:03:41.304Z,101632.06
2023-04-15T13:06:32.789Z,101629.69
2023-04-15T13:09:26.610Z,101632.44
2023-04-15T13:12:16.506Z,101629.09
2023-04-15T13:15:06.806Z,101629.66
2023-04-15T13:17:56.141Z,101629.00
2023-04-15T13:20:45.577Z,101632.56
2023-04-15T13:23:34.955Z,101628.28
2023-04-15T13:26:25.766Z,101627.38
2023-04-15T13:29:15.055Z,101636.63
2023-04-15T13:32:04.591Z,101638.75
2023-04-15T13:34:54.893Z,101646.94
2023-04-15T13:37:44.163Z,101626.16
2023-04-15T13:40:33.472Z,101629.81
2023-04-15T13:43:24.166Z,101623.00
2023-04-15T13:46:13.837Z,101615.81
2023-04-15T13:49:03.332Z,101623.34
2023-04-15T13:51:53.092Z,101620.63
2023-04-15T13:54:42.481Z,101621.75
2023-04-15T13:57:32.603Z,101618.84
2023-04-15T14:00:23.623Z,101620.06
2023-04-15T14:03:12.984Z,101619.22
2023-04-15T14:06:02.480Z,101627.03
2023-04-15T14:08:51.854Z,101624.69
2023-04-15T14:11:41.274Z,101622.94
2023-04-15T14:14:30.642Z,101614.41
2023-04-15T14:17:21.478Z,101622.81
2023-04-15T14:20:11.838Z,101611.38
2023-04-15T14:23:01.108Z,101608.75
2023-04-15T14:25:51.956Z,101598.06
2023-04-15T14:28:41.314Z,101613.47
2023-04-15T14:31:33.746Z,101610.31
2023-04-15T14:34:25.571Z,101592.50
2023-04-15T14:37:14.844Z,101619.00
2023-04-15T14:40:04.258Z,101619.13
2023-04-15T14:42:53.509Z,101601.41
2023-04-15T14:45:44.603Z,101621.13
2023-04-15T14:48:34.862Z,101587.41
2023-04-15T14:51:26.628Z,101594.28
2023-04-15T14:54:15.863Z,101613.16
2023-04-15T14:57:05.429Z,101598.44
2023-04-15T14:59:56.770Z,101645.81
2023-04-15T15:02:47.642Z,101639.56
2023-04-15T15:05:37.279Z,101647.88
2023-04-15T15:08:28.167Z,101641.25
2023-04-15T15:11:17.929Z,101631.78
2023-04-15T15:14:07.316Z,101638.25
2023-04-15T15:16:56.633Z,101647.69
2023-04-15T15:19:46.453Z,101629.88
2023-04-15T15:22:35.723Z,101654.56
2023-04-15T15:25:26.614Z,101655.53
2023-04-15T15:28:15.949Z,101654.44
2023-04-15T15:31:06.117Z,101651.38
2023-04-15T15:33:55.523Z,101656.63
2023-04-15T15:36:44.800Z,101669.81
2023-04-15T15:39:33.995Z,101659.59
2023-04-15T15:42:24.967Z,101663.59
2023-04-15T15:45:14.340Z,101655.97
2023-04-15T15:48:04.050Z,101656.50
2023-04-15T15:50:54.328Z,101655.38
2023-04-15T15:53:44.799Z,101645.66
2023-04-15T15:56:35.145Z,101651.00
2023-04-15T15:59:26.114Z,101629.75
2023-04-15T16:02:15.769Z,101643.69
2023-04-15T16:05:05.688Z,101652.66
2023-04-15T16:07:54.943Z,101653.75
2023-04-15T16:10:45.839Z,101636.28
2023-04-15T16:13:35.082Z,101652.81
2023-04-15T16:16:25.713Z,101651.19
2023-04-15T16:19:15.350Z,101648.59
2023-04-15T16:22:04.701Z,101650.09
2023-04-15T16:24:54.549Z,101657.34
2023-04-15T16:27:58.908Z,101647.94
2023-04-15T16:30:52.592Z,101661.75
2023-04-15T16:33:43.415Z,101660.94
2023-04-15T16:36:32.881Z,101637.06
2023-04-15T16:39:24.039Z,101634.66
2023-04-15T16:42:13.637Z,101648.13
2023-04-15T16:45:02.925Z,101651.69
2023-04-15T16:47:52.402Z,101647.63
2023-04-15T16:50:43.028Z,101659.63
2023-04-15T16:53:32.317Z,101654.78
2023-04-15T16:56:22.201Z,101658.03
2023-04-15T16:59:11.429Z,101659.47
2023-04-15T17:02:02.570Z,101644.25
2023-04-15T17:04:51.873Z,101647.81
2023-04-15T17:07:42.629Z,101651.19
2023-04-15T17:10:32.736Z,101643.91
2023-04-15T17:13:22.150Z,101653.13
2023-04-15T17:16:11.787Z,101658.47
2023-04-15T17:19:05.530Z,101649.88
2023-04-15T17:22:03.158Z,101643.34
2023-04-15T17:24:54.845Z,101641.34
2023-04-15T17:27:45.032Z,101642.63
2023-04-15T17:30:39.567Z,101637.25
2023-04-15T17:33:58.881Z,101618.09
2023-04-15T17:37:18.827Z,101629.25
2023-04-15T17:40:29.426Z,101629.06
2023-04-15T17:43:39.041Z,101649.66
2023-04-15T17:46:48.527Z,101632.00
2023-04-15T17:49:57.716Z,101637.19
2023-04-15T17:53:06.983Z,101628.28
2023-04-15T17:56:17.517Z,101637.34
2023-04-15T17:59:26.810Z,101636.38
2023-04-15T18:02:37.429Z,101622.09
2023-04-15T18:05:46.972Z,101647.56
2023-04-15T18:08:56.341Z,101636.56
2023-04-15T18:12:09.047Z,101641.63
2023-04-15T18:15:18.733Z,101644.25
2023-04-15T18:18:29.242Z,101642.81
2023-04-15T18:21:22.656Z,101636.78
2023-04-15T18:24:11.909Z,101652.03
2023-04-15T18:27:01.756Z,101646.31
2023-04-15T18:29:52.692Z,101642.06
2023-04-15T18:32:43.088Z,101638.63
2023-04-15T18:35:32.382Z,101635.69
2023-04-15T18:38:21.740Z,101633.69
2023-04-15T18:41:11.180Z,101637.84
2023-04-15T18:44:00.395Z,101634.50
2023-04-15T18:46:51.777Z,101643.13
2023-04-15T18:49:41.797Z,101647.88
2023-04-15T18:52:33.971Z,101645.50
2023-04-15T18:55:24.152Z,101650.59
2023-04-15T18:58:14.067Z,101650.19
2023-04-15T19:01:03.375Z,101661.81
2023-04-15T19:03:54.043Z,101643.31
2023-04-15T19:06:43.375Z,101642.31
2023-04-15T19:09:32.894Z,101625.84
2023-04-15T19:12:22.130Z,101625.97
2023-04-15T19:15:12.232Z,101626.19
2023-04-15T19:18:01.858Z,101641.59
2023-04-15T19:20:52.916Z,101631.81
2023-04-15T19:23:43.913Z,101633.94
2023-04-15T19:26:33.135Z,101621.94
2023-04-15T19:29:23.023Z,101626.94
2023-04-15T19:32:14.113Z,101622.66
2023-04-15T19:35:03.401Z,101641.34
2023-04-15T19:37:54.088Z,101657.41
2023-04-15T19:40:43.326Z,101651.66
2023-04-15T19:43:33.702Z,101650.50
2023-04-15T19:46:23.064Z,101661.03
2023-04-15T19:49:12.423Z,101656.16
2023-04-15T19:52:01.927Z,101655.31
2023-04-15T19:54:52.560Z,101645.16
2023-04-15T19:57:41.862Z,101666.13
2023-04-15T20:00:31.760Z,101671.16
2023-04-15T20:03:21.162Z,101663.59
2023-04-15T20:06:10.887Z,101677.38
2023-04-15T20:09:00.233Z,101683.16
2023-04-15T20:12:06.100Z,101693.22
2023-04-15T20:15:00.310Z,101699.75
2023-04-15T20:17:49.647Z,101701.28
2023-04-15T20:20:41.444Z,101698.34
2023-04-15T20:23:30.671Z,101699.66
2023-04-15T20:26:20.797Z,101689.34
2023-04-15T20:29:11.573Z,101680.41
2023-04-15T20:32:00.814Z,101687.28
2023-04-15T20:34:50.067Z,101682.22
2023-04-15T20:37:40.533Z,101686.44
2023-04-15T20:40:30.049Z,101686.13
2023-04-15T20:43:19.330Z,101675.69
2023-04-15T20:46:20.190Z,101674.34
2023-04-15T20:49:10.554Z,101668.38
2023-04-15T20:51:59.819Z,101666.91
2023-04-15T20:54:49.035Z,101677.06
2023-04-15T20:57:38.328Z,101680.59
2023-04-15T21:00:27.676Z,101672.00
2023-04-15T21:03:18.449Z,101668.44
2023-04-15T21:06:07.786Z,101675.81
2023-04-15T21:08:57.036Z,101664.44
2023-04-15T21:12:00.620Z,101677.31
2023-04-15T21:14:51.975Z,101676.28
2023-04-15T21:17:41.798Z,101671.56
2023-04-15T21:20:33.003Z,101676.00
2023-04-15T21:23:22.306Z,101673.53
2023-04-15T21:26:11.579Z,101690.19
2023-04-15T21:29:00.966Z,101681.34
2023-04-15T21:31:50.538Z,101682.84
2023-04-15T21:34:40.002Z,101679.00
2023-04-15T21:37:30.817Z,101679.47
2023-04-15T21:40:20.394Z,101682.50
2023-04-15T21:43:09.692Z,101693.66
2023-04-15T21:46:22.109Z,101702.75
2023-04-15T21:49:08.593Z,101697.28
2023-04-15T21:52:01.323Z,101704.16
2023-04-15T21:54:52.070Z,101692.34
2023-04-15T21:57:41.294Z,101696.47
2023-04-15T22:00:30.627Z,101694.03
2023-04-15T22:03:20.147Z,101692.03
2023-04-15T22:06:09.718Z,101688.41
2023-04-15T22:08:59.074Z,101688.94
2023-04-15T22:11:49.946Z,101678.50
2023-04-15T22:14:39.190Z,101691.09
2023-04-15T22:17:28.844Z,101699.00
2023-04-15T22:20:18.266Z,101679.63
2023-04-15T22:23:09.881Z,101678.72
2023-04-15T22:26:00.555Z,101692.94
2023-04-15T22:28:51.546Z,101693.47
2023-04-15T22:31:40.982Z,101677.09
2023-04-15T22:34:30.285Z,101663.47
2023-04-15T22:37:19.486Z,101662.50
2023-04-15T22:40:10.444Z,101655.97
2023-04-15T22:42:59.756Z,101640.94
2023-04-15T22:45:53.205Z,101648.34
2023-04-15T22:48:43.019Z,101665.56
2023-04-15T22:51:32.996Z,101656.22
2023-04-15T22:54:22.284Z,101657.69
2023-04-15T22:57:11.529Z,101670.78
2023-04-15T23:00:00.804Z,101670.22
2023-04-15T23:02:51.596Z,101670.72
2023-04-15T23:05:41.361Z,101676.88
2023-04-15T23:08:30.800Z,101677.22
2023-04-15T23:11:20.052Z,101687.06
2023-04-15T23:14:10.329Z,101682.41
2023-04-15T23:17:00.486Z,101679.47
2023-04-15T23:19:51.834Z,101685.91
2023-04-15T23:22:42.102Z,101683.91
2023-04-15T23:25:31.360Z,101678.34
2023-04-15T23:28:20.987Z,101688.44
2023-04-15T23:31:10.235Z,101681.38
2023-04-15T23:33:59.623Z,101671.59
2023-04-15T23:36:50.288Z,101678.78
2023-04-15T23:39:39.528Z,101678.50
2023-04-15T23:42:28.897Z,101680.97
2023-04-15T23:45:19.398Z,101673.47
2023-04-15T23:48:09.149Z,101673.56
2023-04-15T23:50:58.507Z,101679.03
2023-04-15T23:53:50.157Z,101684.22
2023-04-15T23:56:39.416Z,101675.09
2023-04-15T23:59:28.679Z,101686.81
